MET'MAP v2.0
soon released !

Expected late october,
this new version will be
more efficient, smarter,
and hosted on a brand new
server x3 powerfull...
...and still free !


Not compatible ?
Try the mobile version !

LOG IN : | Subscribe | Disclaimer | Who is Orbifly ? |
ICAO code :
Legend : VFR Marginal VFR IFR Intensive IFR Very Intensive IFR
Visi :
Ceiling :
>= 8 km
>= 3000ft
5 to 8 km
1000 to 3000 ft
1500m to 5 km
500 to 1000 ft
800 to 1500m
200 to 500 ft
< 800m
< 200 ft

METAR - LFPC Creil - 28 Feb 2020 07:45 UTC
Data Sources :     NOAA   


- Airport Elevation : 291 ft
- IATA code : CSF
- No reported NOTAMs.


LFPC - Creil

Latest METAR recorded : 0000/00/00 /0:0 0000/00/00 /0:0 0000/00/00 /0:0 0000/00/00 /0:0 0000/00/00 /2:8 2020/02/28 06:00 LFSG 280600Z AUTO 18008KT M01/M02 Q1020
NO TAF


MET'MAP, your aeronautical weather chart ! - Copyright ORBIFLY December 2007

Programming & Development : Alexandra Zaïnal
Co-Developer : Marc-Olivier Méhu
Technical & hardware support : Manuel Goepfert
Concept & Financing : Baudouin d'Aumeries